sensor_id;sensor_type;location;lat;lon;timestamp;pressure;altitude;pressure_sealevel;temperature;humidity
3082;BME280;1551;51.046;7.010;2023-04-30T00:00:21;101505.66;;;10.01;86.54
3082;BME280;1551;51.046;7.010;2023-04-30T00:03:10;101499.66;;;9.97;85.69
3082;BME280;1551;51.046;7.010;2023-04-30T00:05:59;101502.19;;;9.94;86.04
3082;BME280;1551;51.046;7.010;2023-04-30T00:08:48;101509.00;;;9.92;86.66
3082;BME280;1551;51.046;7.010;2023-04-30T00:11:37;101501.31;;;9.86;85.91
3082;BME280;1551;51.046;7.010;2023-04-30T00:14:26;101503.88;;;9.89;86.10
3082;BME280;1551;51.046;7.010;2023-04-30T00:17:15;101498.75;;;9.92;86.44
3082;BME280;1551;51.046;7.010;2023-04-30T00:20:05;101507.31;;;9.91;86.74
3082;BME280;1551;51.046;7.010;2023-04-30T00:22:54;101501.31;;;9.92;86.32
3082;BME280;1551;51.046;7.010;2023-04-30T00:25:43;101511.53;;;9.88;85.32
3082;BME280;1551;51.046;7.010;2023-04-30T00:28:32;101514.94;;;9.87;86.22
3082;BME280;1551;51.046;7.010;2023-04-30T00:31:21;101515.81;;;9.89;85.75
3082;BME280;1551;51.046;7.010;2023-04-30T00:34:10;101515.81;;;9.95;85.51
3082;BME280;1551;51.046;7.010;2023-04-30T00:36:59;101518.38;;;9.93;85.03
3082;BME280;1551;51.046;7.010;2023-04-30T00:39:48;101526.91;;;9.89;85.08
3082;BME280;1551;51.046;7.010;2023-04-30T00:42:37;101526.03;;;9.89;84.38
3082;BME280;1551;51.046;7.010;2023-04-30T00:45:26;101521.69;;;9.80;84.08
3082;BME280;1551;51.046;7.010;2023-04-30T00:48:15;101518.25;;;9.74;84.46
3082;BME280;1551;51.046;7.010;2023-04-30T00:51:04;101527.66;;;9.75;84.32
3082;BME280;1551;51.046;7.010;2023-04-30T00:53:53;101533.56;;;9.67;84.61
3082;BME280;1551;51.046;7.010;2023-04-30T00:56:43;101529.31;;;9.68;84.55
3082;BME280;1551;51.046;7.010;2023-04-30T00:59:31;101534.25;;;9.50;84.55
3082;BME280;1551;51.046;7.010;2023-04-30T01:02:21;101528.25;;;9.43;85.10
3082;BME280;1551;51.046;7.010;2023-04-30T01:05:11;101529.94;;;9.41;85.05
3082;BME280;1551;51.046;7.010;2023-04-30T01:08:00;101522.28;;;9.41;85.42
3082;BME280;1551;51.046;7.010;2023-04-30T01:11:00;101538.50;;;9.46;85.04
3082;BME280;1551;51.046;7.010;2023-04-30T01:14:09;101538.50;;;9.46;85.21
3082;BME280;1551;51.046;7.010;2023-04-30T01:17:17;101534.22;;;9.45;85.19
3082;BME280;1551;51.046;7.010;2023-04-30T01:20:10;101529.91;;;9.38;85.49
3082;BME280;1551;51.046;7.010;2023-04-30T01:23:10;101530.78;;;9.40;85.38
3082;BME280;1551;51.046;7.010;2023-04-30T01:29:11;101523.94;;;9.38;84.64
3082;BME280;1551;51.046;7.010;2023-04-30T01:32:01;101535.06;;;9.41;84.38
3082;BME280;1551;51.046;7.010;2023-04-30T01:34:51;101533.31;;;9.39;84.69
3082;BME280;1551;51.046;7.010;2023-04-30T01:37:59;101536.75;;;9.39;84.55
3082;BME280;1551;51.046;7.010;2023-04-30T01:44:23;101524.72;;;9.31;84.28
3082;BME280;1551;51.046;7.010;2023-04-30T01:50:41;101524.69;;;9.26;84.36
3082;BME280;1551;51.046;7.010;2023-04-30T01:53:39;101520.38;;;9.16;84.94
3082;BME280;1551;51.046;7.010;2023-04-30T01:56:36;101520.34;;;9.15;85.19
3082;BME280;1551;51.046;7.010;2023-04-30T01:59:31;101525.41;;;9.09;85.55
3082;BME280;1551;51.046;7.010;2023-04-30T02:02:20;101515.97;;;9.02;84.70
3082;BME280;1551;51.046;7.010;2023-04-30T02:05:09;101525.41;;;9.09;84.07
3082;BME280;1551;51.046;7.010;2023-04-30T02:07:59;101528.78;;;9.08;84.88
3082;BME280;1551;51.046;7.010;2023-04-30T02:10:48;101519.38;;;9.02;84.76
3082;BME280;1551;51.046;7.010;2023-04-30T02:13:37;101523.56;;;8.94;85.11
3082;BME280;1551;51.046;7.010;2023-04-30T02:16:26;101514.94;;;8.84;85.14
3082;BME280;1551;51.046;7.010;2023-04-30T02:19:15;101517.50;;;8.83;84.72
3082;BME280;1551;51.046;7.010;2023-04-30T02:22:04;101521.81;;;8.88;83.98
3082;BME280;1551;51.046;7.010;2023-04-30T02:24:53;101532.75;;;8.80;84.30
3082;BME280;1551;51.046;7.010;2023-04-30T02:27:43;101526.84;;;8.81;84.67
3082;BME280;1551;51.046;7.010;2023-04-30T02:30:32;101520.81;;;8.77;85.30
3082;BME280;1551;51.046;7.010;2023-04-30T02:33:21;101530.16;;;8.75;85.62
3082;BME280;1551;51.046;7.010;2023-04-30T02:36:10;101535.19;;;8.68;86.34
3082;BME280;1551;51.046;7.010;2023-04-30T02:38:59;101532.56;;;8.63;86.26
3082;BME280;1551;51.046;7.010;2023-04-30T02:41:48;101532.56;;;8.63;86.53
3082;BME280;1551;51.046;7.010;2023-04-30T02:44:37;101535.13;;;8.63;86.76
3082;BME280;1551;51.046;7.010;2023-04-30T02:47:26;101533.38;;;8.59;87.02
3082;BME280;1551;51.046;7.010;2023-04-30T02:50:15;101537.63;;;8.57;87.27
3082;BME280;1551;51.046;7.010;2023-04-30T02:53:04;101532.47;;;8.54;86.96
3082;BME280;1551;51.046;7.010;2023-04-30T02:55:53;101533.34;;;8.56;86.92
3082;BME280;1551;51.046;7.010;2023-04-30T02:58:42;101532.47;;;8.54;86.61
3082;BME280;1551;51.046;7.010;2023-04-30T03:01:31;101530.63;;;8.43;86.48
3082;BME280;1551;51.046;7.010;2023-04-30T03:04:20;101532.25;;;8.36;86.54
3082;BME280;1551;51.046;7.010;2023-04-30T03:07:10;101536.44;;;8.31;87.29
3082;BME280;1551;51.046;7.010;2023-04-30T03:09:59;101523.66;;;8.28;86.79
3082;BME280;1551;51.046;7.010;2023-04-30T03:12:48;101527.09;;;8.32;86.62
3082;BME280;1551;51.046;7.010;2023-04-30T03:15:37;101523.66;;;8.28;86.75
3082;BME280;1551;51.046;7.010;2023-04-30T03:18:27;101528.81;;;8.32;86.89
3082;BME280;1551;51.046;7.010;2023-04-30T03:21:16;101532.88;;;8.20;86.75
3082;BME280;1551;51.046;7.010;2023-04-30T03:24:05;101539.59;;;8.16;86.66
3082;BME280;1551;51.046;7.010;2023-04-30T03:26:55;101531.19;;;8.20;86.71
3082;BME280;1551;51.046;7.010;2023-04-30T03:29:45;101531.25;;;8.25;86.04
3082;BME280;1551;51.046;7.010;2023-04-30T03:32:34;101528.59;;;8.19;86.55
3082;BME280;1551;51.046;7.010;2023-04-30T03:35:23;101538.72;;;8.13;86.63
3082;BME280;1551;51.046;7.010;2023-04-30T03:38:12;101536.88;;;8.03;86.77
3082;BME280;1551;51.046;7.010;2023-04-30T03:41:00;101536.00;;;8.01;86.85
3082;BME280;1551;51.046;7.010;2023-04-30T03:43:49;101539.28;;;7.92;86.93
3082;BME280;1551;51.046;7.010;2023-04-30T03:46:38;101531.59;;;7.91;87.71
3082;BME280;1551;51.046;7.010;2023-04-30T03:49:27;101531.66;;;7.95;87.71
3082;BME280;1551;51.046;7.010;2023-04-30T03:52:16;101536.00;;;7.99;87.34
3082;BME280;1551;51.046;7.010;2023-04-30T03:55:06;101540.13;;;7.91;87.05
3082;BME280;1551;51.046;7.010;2023-04-30T03:57:55;101543.34;;;7.81;87.30
3082;BME280;1551;51.046;7.010;2023-04-30T04:00:46;101548.38;;;7.74;88.27
3082;BME280;1551;51.046;7.010;2023-04-30T04:03:35;101543.34;;;7.81;86.82
3082;BME280;1551;51.046;7.010;2023-04-30T04:06:25;101545.03;;;7.81;87.01
3082;BME280;1551;51.046;7.010;2023-04-30T04:09:14;101544.22;;;7.80;86.88
3082;BME280;1551;51.046;7.010;2023-04-30T04:12:04;101536.56;;;7.82;86.75
3082;BME280;1551;51.046;7.010;2023-04-30T04:14:53;101533.16;;;7.78;86.54
3082;BME280;1551;51.046;7.010;2023-04-30T04:17:43;101545.03;;;7.78;86.76
3082;BME280;1551;51.046;7.010;2023-04-30T04:20:32;101549.31;;;7.80;86.71
3082;BME280;1551;51.046;7.010;2023-04-30T04:23:21;101547.47;;;7.72;86.47
3082;BME280;1551;51.046;7.010;2023-04-30T04:26:10;101549.97;;;7.69;86.55
3082;BME280;1551;51.046;7.010;2023-04-30T04:29:00;101552.47;;;7.66;87.03
3082;BME280;1551;51.046;7.010;2023-04-30T04:31:49;101546.66;;;7.74;86.93
3082;BME280;1551;51.046;7.010;2023-04-30T04:34:39;101563.72;;;7.78;87.50
3082;BME280;1551;51.046;7.010;2023-04-30T04:37:28;101567.28;;;7.89;87.53
3082;BME280;1551;51.046;7.010;2023-04-30T04:40:17;101562.06;;;7.82;86.73
3082;BME280;1551;51.046;7.010;2023-04-30T04:43:06;101558.75;;;7.87;86.78
3082;BME280;1551;51.046;7.010;2023-04-30T04:45:55;101559.63;;;7.89;86.73
3082;BME280;1551;51.046;7.010;2023-04-30T04:48:44;101561.31;;;7.89;86.56
3082;BME280;1551;51.046;7.010;2023-04-30T04:51:34;101563.94;;;7.95;87.08
3082;BME280;1551;51.046;7.010;2023-04-30T04:54:24;101562.31;;;7.98;86.49
3082;BME280;1551;51.046;7.010;2023-04-30T04:57:13;101560.69;;;8.05;87.17
3082;BME280;1551;51.046;7.010;2023-04-30T05:00:02;101555.78;;;8.17;86.68
3082;BME280;1551;51.046;7.010;2023-04-30T05:02:54;101558.28;;;8.14;86.25
3082;BME280;1551;51.046;7.010;2023-04-30T05:05:43;101564.28;;;8.19;86.48
3082;BME280;1551;51.046;7.010;2023-04-30T05:08:32;101555.09;;;8.27;86.79
3082;BME280;1551;51.046;7.010;2023-04-30T05:11:21;101551.78;;;8.34;86.38
3082;BME280;1551;51.046;7.010;2023-04-30T05:14:10;101562.97;;;8.45;87.37
3082;BME280;1551;51.046;7.010;2023-04-30T05:16:59;101557.94;;;8.50;86.78
3082;BME280;1551;51.046;7.010;2023-04-30T05:19:48;101569.97;;;8.61;85.93
3082;BME280;1551;51.046;7.010;2023-04-30T05:22:38;101571.00;;;8.75;86.42
3082;BME280;1551;51.046;7.010;2023-04-30T05:25:27;101579.69;;;8.91;86.18
3082;BME280;1551;51.046;7.010;2023-04-30T05:28:17;101573.06;;;9.08;86.15
3082;BME280;1551;51.046;7.010;2023-04-30T05:31:06;101578.34;;;9.23;85.42
3082;BME280;1551;51.046;7.010;2023-04-30T05:33:55;101588.66;;;9.35;85.52
3082;BME280;1551;51.046;7.010;2023-04-30T05:36:44;101585.38;;;9.47;85.64
3082;BME280;1551;51.046;7.010;2023-04-30T05:39:33;101593.19;;;9.65;84.86
3082;BME280;1551;51.046;7.010;2023-04-30T05:42:22;101589.91;;;9.81;84.06
3082;BME280;1551;51.046;7.010;2023-04-30T05:45:12;101595.19;;;10.05;84.07
3082;BME280;1551;51.046;7.010;2023-04-30T05:48:02;101600.41;;;10.20;83.28
3082;BME280;1551;51.046;7.010;2023-04-30T05:50:50;101602.22;;;10.36;82.95
3082;BME280;1551;51.046;7.010;2023-04-30T05:53:40;101605.72;;;10.54;82.48
3082;BME280;1551;51.046;7.010;2023-04-30T05:56:28;101604.91;;;10.67;81.74
3082;BME280;1551;51.046;7.010;2023-04-30T05:59:17;101606.63;;;10.69;81.50
3082;BME280;1551;51.046;7.010;2023-04-30T06:02:06;101599.88;;;10.80;81.98
3082;BME280;1551;51.046;7.010;2023-04-30T06:04:55;101606.72;;;10.93;80.44
3082;BME280;1551;51.046;7.010;2023-04-30T06:07:44;101605.06;;;11.06;80.18
3082;BME280;1551;51.046;7.010;2023-04-30T06:10:34;101611.91;;;11.19;78.58
3082;BME280;1551;51.046;7.010;2023-04-30T06:13:23;101608.53;;;11.20;78.66
3082;BME280;1551;51.046;7.010;2023-04-30T06:16:11;101605.13;;;11.23;79.04
3082;BME280;1551;51.046;7.010;2023-04-30T06:19:00;101589.72;;;11.30;78.04
3082;BME280;1551;51.046;7.010;2023-04-30T06:21:49;101603.44;;;11.50;77.66
3082;BME280;1551;51.046;7.010;2023-04-30T06:24:38;101599.19;;;11.67;77.14
3082;BME280;1551;51.046;7.010;2023-04-30T06:27:27;101603.47;;;11.85;77.02
3082;BME280;1551;51.046;7.010;2023-04-30T06:30:16;101600.06;;;11.95;76.76
3082;BME280;1551;51.046;7.010;2023-04-30T06:33:05;101595.72;;;12.18;76.08
3082;BME280;1551;51.046;7.010;2023-04-30T06:35:54;101591.38;;;12.49;75.45
3082;BME280;1551;51.046;7.010;2023-04-30T06:38:44;101601.50;;;12.79;74.35
3082;BME280;1551;51.046;7.010;2023-04-30T06:41:35;101594.53;;;12.99;73.13
3082;BME280;1551;51.046;7.010;2023-04-30T06:44:30;101591.88;;;13.27;72.16
3082;BME280;1551;51.046;7.010;2023-04-30T06:47:20;101594.16;;;13.60;71.45
3082;BME280;1551;51.046;7.010;2023-04-30T06:50:09;101599.06;;;13.92;70.05
3082;BME280;1551;51.046;7.010;2023-04-30T06:52:58;101589.31;;;14.22;68.53
3082;BME280;1551;51.046;7.010;2023-04-30T06:55:47;101590.75;;;14.49;66.99
3082;BME280;1551;51.046;7.010;2023-04-30T06:58:37;101586.03;;;14.83;66.56
3082;BME280;1551;51.046;7.010;2023-04-30T07:01:26;101596.16;;;14.98;66.74
3082;BME280;1551;51.046;7.010;2023-04-30T07:04:15;101592.34;;;15.23;66.71
3082;BME280;1551;51.046;7.010;2023-04-30T07:07:04;101600.44;;;15.58;65.09
3082;BME280;1551;51.046;7.010;2023-04-30T07:09:52;101600.78;;;15.88;63.78
3082;BME280;1551;51.046;7.010;2023-04-30T07:12:41;101596.19;;;16.05;62.72
3082;BME280;1551;51.046;7.010;2023-04-30T07:15:30;101590.50;;;16.32;61.92
3082;BME280;1551;51.046;7.010;2023-04-30T07:18:19;101589.38;;;16.45;61.00
3082;BME280;1551;51.046;7.010;2023-04-30T07:21:08;101597.03;;;16.51;59.99
3082;BME280;1551;51.046;7.010;2023-04-30T07:23:58;101590.88;;;16.58;59.19
3082;BME280;1551;51.046;7.010;2023-04-30T07:26:46;101592.28;;;16.73;58.44
3082;BME280;1551;51.046;7.010;2023-04-30T07:29:35;101587.88;;;16.78;58.22
3082;BME280;1551;51.046;7.010;2023-04-30T07:32:25;101596.16;;;16.93;58.59
3082;BME280;1551;51.046;7.010;2023-04-30T07:35:14;101597.44;;;17.49;58.09
3082;BME280;1551;51.046;7.010;2023-04-30T07:38:04;101585.66;;;17.74;57.34
3082;BME280;1551;51.046;7.010;2023-04-30T07:40:53;101584.38;;;17.89;56.22
3082;BME280;1551;51.046;7.010;2023-04-30T07:43:42;101586.78;;;17.97;55.00
3082;BME280;1551;51.046;7.010;2023-04-30T07:46:31;101589.66;;;18.18;55.84
3082;BME280;1551;51.046;7.010;2023-04-30T07:49:20;101587.84;;;18.52;53.62
3082;BME280;1551;51.046;7.010;2023-04-30T07:52:09;101585.72;;;18.67;52.68
3082;BME280;1551;51.046;7.010;2023-04-30T07:55:00;101590.28;;;18.88;53.59
3082;BME280;1551;51.046;7.010;2023-04-30T07:57:49;101592.44;;;19.01;53.06
3082;BME280;1551;51.046;7.010;2023-04-30T08:00:37;101592.19;;;19.10;51.63
3082;BME280;1551;51.046;7.010;2023-04-30T08:03:26;101595.28;;;19.21;52.22
3082;BME280;1551;51.046;7.010;2023-04-30T08:06:15;101585.00;;;19.46;50.77
3082;BME280;1551;51.046;7.010;2023-04-30T08:09:04;101586.09;;;19.39;50.42
3082;BME280;1551;51.046;7.010;2023-04-30T08:11:53;101588.38;;;19.20;50.06
3082;BME280;1551;51.046;7.010;2023-04-30T08:14:42;101590.41;;;19.40;50.34
3082;BME280;1551;51.046;7.010;2023-04-30T08:17:31;101579.22;;;19.89;49.91
3082;BME280;1551;51.046;7.010;2023-04-30T08:20:21;101578.31;;;20.15;48.70
3082;BME280;1551;51.046;7.010;2023-04-30T08:23:11;101588.88;;;20.10;47.59
3082;BME280;1551;51.046;7.010;2023-04-30T08:26:00;101586.06;;;20.16;46.95
3082;BME280;1551;51.046;7.010;2023-04-30T08:28:49;101581.94;;;19.86;45.61
3082;BME280;1551;51.046;7.010;2023-04-30T08:31:38;101590.25;;;19.96;45.81
3082;BME280;1551;51.046;7.010;2023-04-30T08:34:27;101585.63;;;20.53;44.67
3082;BME280;1551;51.046;7.010;2023-04-30T08:37:16;101586.28;;;21.04;43.46
3082;BME280;1551;51.046;7.010;2023-04-30T08:40:05;101582.91;;;21.24;42.82
3082;BME280;1551;51.046;7.010;2023-04-30T08:43:07;101577.56;;;21.49;40.78
3082;BME280;1551;51.046;7.010;2023-04-30T08:45:57;101581.59;;;21.56;41.82
3082;BME280;1551;51.046;7.010;2023-04-30T08:48:46;101573.66;;;21.59;40.37
3082;BME280;1551;51.046;7.010;2023-04-30T08:51:38;101581.53;;;21.57;40.10
3082;BME280;1551;51.046;7.010;2023-04-30T08:54:29;101578.72;;;21.62;39.56
3082;BME280;1551;51.046;7.010;2023-04-30T08:57:19;101578.81;;;21.60;39.48
3082;BME280;1551;51.046;7.010;2023-04-30T09:00:09;101573.75;;;21.77;39.78
3082;BME280;1551;51.046;7.010;2023-04-30T09:02:59;101566.31;;;21.68;39.48
3082;BME280;1551;51.046;7.010;2023-04-30T09:05:48;101568.88;;;22.10;40.74
3082;BME280;1551;51.046;7.010;2023-04-30T09:08:43;101569.06;;;22.44;41.17
3082;BME280;1551;51.046;7.010;2023-04-30T09:11:34;101570.47;;;22.51;39.07
3082;BME280;1551;51.046;7.010;2023-04-30T09:14:23;101563.81;;;22.65;39.27
3082;BME280;1551;51.046;7.010;2023-04-30T09:17:20;101572.84;;;22.76;39.21
3082;BME280;1551;51.046;7.010;2023-04-30T09:20:11;101562.44;;;22.93;38.72
3082;BME280;1551;51.046;7.010;2023-04-30T09:23:08;101566.75;;;22.94;39.03
3082;BME280;1551;51.046;7.010;2023-04-30T09:25:57;101559.41;;;22.84;38.65
3082;BME280;1551;51.046;7.010;2023-04-30T09:28:57;101556.72;;;23.04;37.96
3082;BME280;1551;51.046;7.010;2023-04-30T09:31:46;101553.94;;;23.25;38.23
3082;BME280;1551;51.046;7.010;2023-04-30T09:34:35;101543.81;;;23.37;36.97
3082;BME280;1551;51.046;7.010;2023-04-30T09:37:35;101538.59;;;23.54;36.57
3082;BME280;1551;51.046;7.010;2023-04-30T09:40:38;101532.91;;;23.63;36.53
3082;BME280;1551;51.046;7.010;2023-04-30T09:43:28;101537.69;;;24.05;36.83
3082;BME280;1551;51.046;7.010;2023-04-30T09:46:20;101530.72;;;24.53;37.21
3082;BME280;1551;51.046;7.010;2023-04-30T09:49:10;101527.44;;;24.50;36.11
3082;BME280;1551;51.046;7.010;2023-04-30T09:51:59;101532.31;;;24.40;34.91
3082;BME280;1551;51.046;7.010;2023-04-30T09:54:48;101530.91;;;24.66;35.21
3082;BME280;1551;51.046;7.010;2023-04-30T09:57:37;101525.38;;;25.17;34.43
3082;BME280;1551;51.046;7.010;2023-04-30T10:00:27;101520.47;;;25.57;34.32
3082;BME280;1551;51.046;7.010;2023-04-30T10:03:16;101522.63;;;25.64;32.37
3082;BME280;1551;51.046;7.010;2023-04-30T10:06:05;101521.25;;;24.67;33.54
3082;BME280;1551;51.046;7.010;2023-04-30T10:08:56;101521.00;;;24.55;32.48
3082;BME280;1551;51.046;7.010;2023-04-30T10:11:46;101504.72;;;25.27;31.76
3082;BME280;1551;51.046;7.010;2023-04-30T10:14:35;101504.25;;;23.94;33.07
3082;BME280;1551;51.046;7.010;2023-04-30T10:17:26;101506.63;;;23.49;35.09
3082;BME280;1551;51.046;7.010;2023-04-30T10:20:20;101505.00;;;22.93;35.92
3082;BME280;1551;51.046;7.010;2023-04-30T10:23:11;101507.31;;;22.64;37.01
3082;BME280;1551;51.046;7.010;2023-04-30T10:26:01;101510.97;;;22.41;36.95
3082;BME280;1551;51.046;7.010;2023-04-30T10:28:50;101505.75;;;23.14;36.01
3082;BME280;1551;51.046;7.010;2023-04-30T10:31:42;101500.75;;;24.59;33.65
3082;BME280;1551;51.046;7.010;2023-04-30T10:34:49;101505.84;;;24.14;34.39
3082;BME280;1551;51.046;7.010;2023-04-30T10:37:48;101493.22;;;23.20;34.34
3082;BME280;1551;51.046;7.010;2023-04-30T10:40:39;101489.88;;;22.64;36.05
3082;BME280;1551;51.046;7.010;2023-04-30T10:43:31;101492.06;;;23.09;35.72
3082;BME280;1551;51.046;7.010;2023-04-30T10:46:22;101488.53;;;25.35;34.70
3082;BME280;1551;51.046;7.010;2023-04-30T10:49:12;101489.56;;;26.73;31.17
3082;BME280;1551;51.046;7.010;2023-04-30T10:52:03;101475.06;;;24.97;32.56
3082;BME280;1551;51.046;7.010;2023-04-30T10:54:52;101473.31;;;23.69;34.17
3082;BME280;1551;51.046;7.010;2023-04-30T10:57:42;101465.38;;;25.57;32.18
3082;BME280;1551;51.046;7.010;2023-04-30T11:00:32;101467.47;;;25.80;32.22
3082;BME280;1551;51.046;7.010;2023-04-30T11:03:21;101461.53;;;24.57;33.07
3082;BME280;1551;51.046;7.010;2023-04-30T11:06:14;101459.34;;;24.19;34.22
3082;BME280;1551;51.046;7.010;2023-04-30T11:09:04;101455.94;;;25.54;33.40
3082;BME280;1551;51.046;7.010;2023-04-30T11:12:01;101452.13;;;27.36;30.83
3082;BME280;1551;51.046;7.010;2023-04-30T11:14:51;101453.63;;;25.34;31.59
3082;BME280;1551;51.046;7.010;2023-04-30T11:17:42;101451.25;;;24.54;32.71
3082;BME280;1551;51.046;7.010;2023-04-30T11:20:32;101447.34;;;23.49;33.29
3082;BME280;1551;51.046;7.010;2023-04-30T11:23:22;101437.56;;;23.70;33.30
3082;BME280;1551;51.046;7.010;2023-04-30T11:26:11;101441.72;;;24.38;32.44
3082;BME280;1551;51.046;7.010;2023-04-30T11:29:01;101440.00;;;23.73;33.20
3082;BME280;1551;51.046;7.010;2023-04-30T11:31:51;101440.72;;;23.08;33.71
3082;BME280;1551;51.046;7.010;2023-04-30T11:34:42;101434.13;;;23.35;33.52
3082;BME280;1551;51.046;7.010;2023-04-30T11:37:40;101441.50;;;26.04;31.98
3082;BME280;1551;51.046;7.010;2023-04-30T11:40:34;101429.28;;;27.23;29.32
3082;BME280;1551;51.046;7.010;2023-04-30T11:43:30;101426.97;;;27.94;28.73
3082;BME280;1551;51.046;7.010;2023-04-30T11:46:19;101431.81;;;28.13;28.42
3082;BME280;1551;51.046;7.010;2023-04-30T11:49:08;101434.78;;;28.56;27.61
3082;BME280;1551;51.046;7.010;2023-04-30T11:51:57;101425.66;;;29.07;25.54
3082;BME280;1551;51.046;7.010;2023-04-30T11:54:47;101427.69;;;29.39;27.37
3082;BME280;1551;51.046;7.010;2023-04-30T11:57:41;101426.28;;;29.11;25.30
3082;BME280;1551;51.046;7.010;2023-04-30T12:00:30;101412.38;;;27.78;26.84
3082;BME280;1551;51.046;7.010;2023-04-30T12:03:19;101420.06;;;28.77;26.02
3082;BME280;1551;51.046;7.010;2023-04-30T12:06:10;101410.69;;;29.54;25.63
3082;BME280;1551;51.046;7.010;2023-04-30T12:08:59;101415.59;;;29.69;24.79
3082;BME280;1551;51.046;7.010;2023-04-30T12:11:51;101417.53;;;30.01;25.61
3082;BME280;1551;51.046;7.010;2023-04-30T12:14:40;101399.03;;;29.45;25.47
3082;BME280;1551;51.046;7.010;2023-04-30T12:17:32;101394.22;;;29.50;25.78
3082;BME280;1551;51.046;7.010;2023-04-30T12:20:24;101400.31;;;28.35;26.35
3082;BME280;1551;51.046;7.010;2023-04-30T12:23:13;101394.66;;;26.65;28.16
3082;BME280;1551;51.046;7.010;2023-04-30T12:26:02;101393.13;;;28.14;27.57
3082;BME280;1551;51.046;7.010;2023-04-30T12:28:51;101382.44;;;27.03;27.66
3082;BME280;1551;51.046;7.010;2023-04-30T12:31:41;101387.44;;;25.87;27.95
3082;BME280;1551;51.046;7.010;2023-04-30T12:34:29;101384.72;;;25.88;28.14
3082;BME280;1551;51.046;7.010;2023-04-30T12:37:20;101382.59;;;25.81;29.48
3082;BME280;1551;51.046;7.010;2023-04-30T12:40:10;101377.75;;;27.59;28.86
3082;BME280;1551;51.046;7.010;2023-04-30T12:43:04;101378.50;;;28.10;26.93
3082;BME280;1551;51.046;7.010;2023-04-30T12:45:54;101380.06;;;28.12;26.90
3082;BME280;1551;51.046;7.010;2023-04-30T12:48:44;101385.47;;;28.34;25.86
3082;BME280;1551;51.046;7.010;2023-04-30T12:51:36;101366.19;;;27.49;27.32
3082;BME280;1551;51.046;7.010;2023-04-30T12:54:30;101369.66;;;25.78;28.70
3082;BME280;1551;51.046;7.010;2023-04-30T12:57:20;101367.50;;;24.84;29.75
3082;BME280;1551;51.046;7.010;2023-04-30T13:00:09;101361.84;;;25.06;30.84
3082;BME280;1551;51.046;7.010;2023-04-30T13:02:58;101370.28;;;25.95;29.42
3082;BME280;1551;51.046;7.010;2023-04-30T13:05:49;101352.09;;;26.60;28.83
3082;BME280;1551;51.046;7.010;2023-04-30T13:08:39;101360.16;;;27.34;27.92
3082;BME280;1551;51.046;7.010;2023-04-30T13:11:28;101348.53;;;27.00;27.22
3082;BME280;1551;51.046;7.010;2023-04-30T13:14:17;101357.09;;;25.83;28.82
3082;BME280;1551;51.046;7.010;2023-04-30T13:17:06;101356.69;;;26.44;29.41
3082;BME280;1551;51.046;7.010;2023-04-30T13:19:57;101348.19;;;27.05;29.18
3082;BME280;1551;51.046;7.010;2023-04-30T13:22:46;101347.03;;;27.09;28.04
3082;BME280;1551;51.046;7.010;2023-04-30T13:25:35;101344.22;;;26.07;28.87
3082;BME280;1551;51.046;7.010;2023-04-30T13:28:24;101346.97;;;25.35;30.24
3082;BME280;1551;51.046;7.010;2023-04-30T13:31:13;101328.38;;;24.51;31.17
3082;BME280;1551;51.046;7.010;2023-04-30T13:34:02;101332.81;;;24.04;32.12
3082;BME280;1551;51.046;7.010;2023-04-30T13:36:51;101326.75;;;23.88;32.97
3082;BME280;1551;51.046;7.010;2023-04-30T13:39:41;101314.44;;;23.74;33.06
3082;BME280;1551;51.046;7.010;2023-04-30T13:42:30;101329.56;;;24.46;32.37
3082;BME280;1551;51.046;7.010;2023-04-30T13:45:19;101324.16;;;24.49;30.80
3082;BME280;1551;51.046;7.010;2023-04-30T13:48:08;101313.25;;;24.11;31.57
3082;BME280;1551;51.046;7.010;2023-04-30T13:50:57;101315.97;;;24.10;32.09
3082;BME280;1551;51.046;7.010;2023-04-30T13:53:46;101307.97;;;24.72;30.43
3082;BME280;1551;51.046;7.010;2023-04-30T13:56:35;101309.75;;;25.15;30.09
3082;BME280;1551;51.046;7.010;2023-04-30T13:59:24;101310.53;;;25.46;30.39
3082;BME280;1551;51.046;7.010;2023-04-30T14:02:13;101299.16;;;25.59;30.65
3082;BME280;1551;51.046;7.010;2023-04-30T14:05:02;101291.88;;;25.22;31.27
3082;BME280;1551;51.046;7.010;2023-04-30T14:07:52;101291.34;;;24.73;31.32
3082;BME280;1551;51.046;7.010;2023-04-30T14:10:41;101294.53;;;24.19;32.46
3082;BME280;1551;51.046;7.010;2023-04-30T14:13:30;101288.09;;;23.77;32.54
3082;BME280;1551;51.046;7.010;2023-04-30T14:16:19;101279.25;;;23.49;33.34
3082;BME280;1551;51.046;7.010;2023-04-30T14:19:10;101281.63;;;23.53;33.38
3082;BME280;1551;51.046;7.010;2023-04-30T14:21:59;101279.25;;;23.96;32.55
3082;BME280;1551;51.046;7.010;2023-04-30T14:24:48;101268.59;;;23.99;33.25
3082;BME280;1551;51.046;7.010;2023-04-30T14:27:37;101257.00;;;23.88;32.93
3082;BME280;1551;51.046;7.010;2023-04-30T14:30:25;101273.06;;;23.97;33.46
3082;BME280;1551;51.046;7.010;2023-04-30T14:33:14;101266.44;;;24.07;32.79
3082;BME280;1551;51.046;7.010;2023-04-30T14:36:04;101264.56;;;23.77;33.34
3082;BME280;1551;51.046;7.010;2023-04-30T14:38:54;101264.41;;;23.65;33.33
3082;BME280;1551;51.046;7.010;2023-04-30T14:41:43;101266.19;;;23.64;33.22
3082;BME280;1551;51.046;7.010;2023-04-30T14:44:31;101247.06;;;23.31;32.95
3082;BME280;1551;51.046;7.010;2023-04-30T14:47:20;101252.31;;;23.31;33.19
3082;BME280;1551;51.046;7.010;2023-04-30T14:50:10;101256.16;;;23.24;33.55
3082;BME280;1551;51.046;7.010;2023-04-30T14:52:59;101249.44;;;23.20;34.56
3082;BME280;1551;51.046;7.010;2023-04-30T14:55:48;101252.28;;;23.48;35.18
3082;BME280;1551;51.046;7.010;2023-04-30T14:58:37;101247.88;;;23.96;34.73
3082;BME280;1551;51.046;7.010;2023-04-30T15:01:26;101239.84;;;24.14;33.77
3082;BME280;1551;51.046;7.010;2023-04-30T15:04:15;101232.69;;;24.32;34.68
3082;BME280;1551;51.046;7.010;2023-04-30T15:07:04;101209.66;;;23.77;34.24
3082;BME280;1551;51.046;7.010;2023-04-30T15:09:53;101236.47;;;23.18;35.44
3082;BME280;1551;51.046;7.010;2023-04-30T15:12:42;101237.34;;;23.02;34.89
3082;BME280;1551;51.046;7.010;2023-04-30T15:15:31;101238.63;;;22.61;35.44
3082;BME280;1551;51.046;7.010;2023-04-30T15:18:20;101234.19;;;22.28;35.97
3082;BME280;1551;51.046;7.010;2023-04-30T15:21:08;101228.31;;;22.06;36.54
3082;BME280;1551;51.046;7.010;2023-04-30T15:23:58;101234.38;;;22.07;37.72
3082;BME280;1551;51.046;7.010;2023-04-30T15:26:47;101233.94;;;21.99;37.75